createdAt,value
2022-12-27T00:00:08.629Z,0.00
2022-12-27T00:01:08.850Z,0.00
2022-12-27T00:02:08.499Z,0.00
2022-12-27T00:03:08.499Z,0.00
2022-12-27T00:04:08.806Z,0.00
2022-12-27T00:05:08.587Z,0.00
2022-12-27T00:06:08.659Z,0.00
2022-12-27T00:07:09.077Z,0.00
2022-12-27T00:08:08.568Z,0.00
2022-12-27T00:09:08.708Z,0.00
2022-12-27T00:10:09.334Z,0.00
2022-12-27T00:11:08.507Z,0.00
2022-12-27T00:12:08.388Z,0.00
2022-12-27T00:13:08.537Z,0.00
2022-12-27T00:14:08.626Z,0.00
2022-12-27T00:15:08.777Z,0.00
2022-12-27T00:16:08.597Z,0.00
2022-12-27T00:17:08.436Z,0.00
2022-12-27T00:18:08.368Z,0.00
2022-12-27T00:19:08.756Z,0.00
2022-12-27T00:20:11.276Z,0.00
2022-12-27T00:21:08.384Z,0.00
2022-12-27T00:22:08.380Z,0.00
2022-12-27T00:23:09.133Z,0.00
2022-12-27T00:24:08.181Z,0.00
2022-12-27T00:25:08.395Z,0.00
2022-12-27T00:26:08.437Z,0.00
2022-12-27T00:27:08.510Z,0.00
2022-12-27T00:28:08.319Z,0.00
2022-12-27T00:29:08.334Z,0.00
2022-12-27T00:30:09.766Z,0.00
2022-12-27T00:31:11.766Z,0.00
2022-12-27T00:32:08.688Z,0.00
2022-12-27T00:33:08.672Z,0.00
2022-12-27T00:34:08.657Z,0.00
2022-12-27T00:35:08.449Z,0.00
2022-12-27T00:36:08.157Z,0.00
2022-12-27T00:37:08.478Z,0.00
2022-12-27T00:38:10.212Z,0.00
2022-12-27T00:39:10.332Z,0.00
2022-12-27T00:40:08.096Z,0.00
2022-12-27T00:41:08.006Z,0.00
2022-12-27T00:42:10.670Z,0.00
2022-12-27T00:43:09.045Z,0.00
2022-12-27T00:44:07.926Z,0.00
2022-12-27T00:45:08.839Z,0.00
2022-12-27T00:46:09.425Z,0.00
2022-12-27T00:47:08.967Z,0.00
2022-12-27T00:48:09.475Z,0.00
2022-12-27T00:49:09.169Z,0.00
2022-12-27T00:50:08.893Z,0.00
2022-12-27T00:51:07.913Z,0.00
2022-12-27T00:52:18.248Z,0.00
2022-12-27T00:53:17.498Z,0.00
2022-12-27T00:54:13.763Z,0.00
2022-12-27T00:55:10.462Z,0.00
2022-12-27T00:56:11.068Z,0.00
2022-12-27T00:57:08.936Z,0.00
2022-12-27T00:58:13.649Z,0.00
2022-12-27T00:59:09.439Z,0.00
2022-12-27T01:00:14.158Z,0.00
2022-12-27T01:01:15.409Z,0.00
2022-12-27T01:02:08.404Z,0.00
2022-12-27T01:03:11.125Z,0.00
2022-12-27T01:04:44.318Z,0.00
2022-12-27T01:10:04.544Z,0.00
2022-12-27T01:10:36.671Z,0.00
2022-12-27T01:11:36.810Z,0.00
2022-12-27T01:12:36.979Z,0.00
2022-12-27T01:13:36.485Z,0.00
2022-12-27T01:14:37.765Z,0.00
2022-12-27T01:15:36.632Z,0.00
2022-12-27T01:16:36.243Z,0.00
2022-12-27T01:17:36.320Z,0.00
2022-12-27T01:18:36.852Z,0.00
2022-12-27T01:19:36.547Z,0.00
2022-12-27T01:20:36.356Z,0.00
2022-12-27T01:21:36.438Z,0.00
2022-12-27T01:22:36.582Z,0.00
2022-12-27T01:23:36.271Z,0.00
2022-12-27T01:24:36.187Z,0.00
2022-12-27T01:25:36.387Z,0.00
2022-12-27T01:26:36.380Z,0.00
2022-12-27T01:27:36.414Z,0.00
2022-12-27T01:28:36.281Z,0.00
2022-12-27T01:29:36.202Z,0.00
2022-12-27T01:30:36.313Z,0.00
2022-12-27T01:31:36.266Z,0.00
2022-12-27T01:32:36.022Z,0.00
2022-12-27T01:33:36.215Z,0.00
2022-12-27T01:34:36.147Z,0.00
2022-12-27T01:35:36.341Z,0.00
2022-12-27T01:36:36.161Z,0.00
2022-12-27T01:37:35.961Z,0.00
2022-12-27T01:38:36.081Z,0.00
2022-12-27T01:39:36.066Z,0.00
2022-12-27T01:40:36.403Z,0.00
2022-12-27T01:41:36.002Z,0.00
2022-12-27T01:42:36.168Z,0.00
2022-12-27T01:43:36.211Z,0.00
2022-12-27T01:44:35.893Z,0.00
2022-12-27T01:45:35.949Z,0.00
2022-12-27T01:46:35.900Z,0.00
2022-12-27T01:47:35.906Z,0.00
2022-12-27T01:48:36.043Z,0.00
2022-12-27T01:49:35.827Z,0.00
2022-12-27T01:50:35.931Z,0.00
2022-12-27T01:51:36.237Z,0.00
2022-12-27T01:52:35.844Z,0.00
2022-12-27T01:53:35.861Z,0.00
2022-12-27T01:54:35.886Z,0.00
2022-12-27T01:55:36.020Z,0.00
2022-12-27T01:56:35.803Z,0.00
2022-12-27T01:57:35.778Z,0.00
2022-12-27T01:58:35.696Z,0.00
2022-12-27T01:59:35.601Z,0.00
2022-12-27T02:00:35.796Z,0.00
2022-12-27T02:01:35.950Z,0.00
2022-12-27T02:02:35.702Z,0.00
2022-12-27T02:03:35.638Z,0.00
2022-12-27T02:04:35.624Z,0.00
2022-12-27T02:05:36.573Z,0.00
2022-12-27T02:06:35.652Z,0.00
2022-12-27T02:07:35.777Z,0.00
2022-12-27T02:08:35.823Z,0.00
2022-12-27T02:09:35.577Z,0.00
2022-12-27T02:10:35.651Z,0.00
2022-12-27T02:11:35.572Z,0.00
2022-12-27T02:12:35.371Z,0.00
2022-12-27T02:13:35.792Z,0.00
2022-12-27T02:14:35.600Z,0.00
2022-12-27T02:15:35.543Z,0.00
2022-12-27T02:16:35.643Z,0.00
2022-12-27T02:17:35.556Z,0.00
2022-12-27T02:18:35.541Z,0.00
2022-12-27T02:19:35.461Z,0.00
2022-12-27T02:20:35.436Z,0.00
2022-12-27T02:21:35.537Z,0.00
2022-12-27T02:22:35.680Z,0.00
2022-12-27T02:23:39.660Z,0.00
2022-12-27T02:24:35.255Z,0.00
2022-12-27T02:25:35.388Z,0.00
2022-12-27T02:26:35.381Z,0.00
2022-12-27T02:27:35.293Z,0.00
2022-12-27T02:28:35.274Z,0.00
2022-12-27T02:29:35.627Z,0.00
2022-12-27T02:30:35.502Z,0.00
2022-12-27T02:31:35.296Z,0.00
2022-12-27T02:32:35.542Z,0.00
2022-12-27T02:33:35.324Z,0.00
2022-12-27T02:34:35.487Z,0.00
2022-12-27T02:35:35.577Z,0.00
2022-12-27T02:36:36.028Z,0.00
2022-12-27T02:37:35.499Z,0.00
2022-12-27T02:38:35.247Z,0.00
2022-12-27T02:39:35.285Z,0.00
2022-12-27T02:40:35.281Z,0.00
2022-12-27T02:41:35.163Z,0.00
2022-12-27T02:42:35.422Z,0.00
2022-12-27T02:43:35.131Z,0.00
2022-12-27T02:44:35.179Z,0.00
2022-12-27T02:45:35.002Z,0.00
2022-12-27T02:46:35.196Z,0.00
2022-12-27T02:47:35.152Z,0.00
2022-12-27T02:48:35.160Z,0.00
2022-12-27T02:49:35.315Z,0.00
2022-12-27T02:50:34.938Z,0.00
2022-12-27T02:51:35.045Z,0.00
2022-12-27T02:52:35.333Z,0.00
2022-12-27T02:53:35.188Z,0.00
2022-12-27T02:54:35.182Z,0.00
2022-12-27T02:55:35.059Z,0.00
2022-12-27T02:56:34.881Z,0.00
2022-12-27T02:57:35.007Z,0.00
2022-12-27T02:58:35.185Z,0.00
2022-12-27T02:59:35.164Z,0.00
2022-12-27T03:00:34.916Z,0.00
2022-12-27T03:01:35.129Z,0.00
2022-12-27T03:02:35.150Z,0.00
2022-12-27T03:03:38.394Z,0.00
2022-12-27T03:04:36.360Z,0.00
2022-12-27T03:05:35.258Z,0.00
2022-12-27T03:06:34.929Z,0.00
2022-12-27T03:07:35.153Z,0.00
2022-12-27T03:08:34.858Z,0.00
2022-12-27T03:09:34.874Z,0.00
2022-12-27T03:10:34.972Z,0.00
2022-12-27T03:11:34.866Z,0.00
2022-12-27T03:12:34.802Z,0.00
2022-12-27T03:13:34.917Z,0.00
2022-12-27T03:14:34.808Z,0.00
2022-12-27T03:15:34.919Z,0.00
2022-12-27T03:16:35.302Z,0.00
2022-12-27T03:17:34.717Z,0.00
2022-12-27T03:18:34.828Z,0.00
2022-12-27T03:19:34.627Z,0.00
2022-12-27T03:20:35.201Z,0.00
2022-12-27T03:21:34.764Z,0.00
2022-12-27T03:22:34.870Z,0.00
2022-12-27T03:23:34.863Z,0.00
2022-12-27T03:24:34.561Z,0.00
2022-12-27T03:25:34.570Z,0.00
2022-12-27T03:26:34.889Z,0.00
2022-12-27T03:27:34.683Z,0.00
2022-12-27T03:28:34.498Z,0.00
2022-12-27T03:29:35.271Z,0.00
2022-12-27T03:30:34.612Z,0.00
2022-12-27T03:31:34.588Z,0.00
2022-12-27T03:32:34.527Z,0.00
2022-12-27T03:33:34.623Z,0.00
2022-12-27T03:34:34.587Z,0.00
2022-12-27T03:35:34.439Z,0.00
2022-12-27T03:36:34.457Z,0.00
2022-12-27T03:37:34.441Z,0.00
2022-12-27T03:38:34.468Z,0.00
2022-12-27T03:39:34.473Z,0.00
2022-12-27T03:40:34.284Z,0.00
2022-12-27T03:41:34.414Z,0.00
2022-12-27T03:42:34.293Z,0.00
2022-12-27T03:43:34.829Z,0.00
2022-12-27T03:44:34.328Z,0.00
2022-12-27T03:45:34.307Z,0.00
2022-12-27T03:46:34.416Z,0.00
2022-12-27T03:47:34.209Z,0.00
2022-12-27T03:48:34.213Z,0.00
2022-12-27T03:49:34.329Z,0.00
2022-12-27T03:50:34.137Z,0.00
2022-12-27T03:51:34.243Z,0.00
2022-12-27T03:52:34.227Z,0.00
2022-12-27T03:53:34.261Z,0.00
2022-12-27T03:54:34.059Z,0.00
2022-12-27T03:55:34.168Z,0.00
2022-12-27T03:56:34.062Z,0.00
2022-12-27T03:57:34.191Z,0.00
2022-12-27T03:58:34.102Z,0.00
2022-12-27T03:59:34.174Z,0.00
2022-12-27T04:00:34.182Z,0.00
2022-12-27T04:01:34.140Z,0.00
2022-12-27T04:02:34.336Z,0.00
2022-12-27T04:03:34.162Z,0.00
2022-12-27T04:04:34.108Z,0.00
2022-12-27T04:05:34.018Z,0.00
2022-12-27T04:06:33.933Z,0.00
2022-12-27T04:07:34.025Z,0.00
2022-12-27T04:08:34.051Z,0.00
2022-12-27T04:09:33.952Z,0.00
2022-12-27T04:10:33.978Z,0.00
2022-12-27T04:11:33.773Z,0.00
2022-12-27T04:12:34.088Z,0.00
2022-12-27T04:13:33.906Z,0.00
2022-12-27T04:14:33.884Z,0.00
2022-12-27T04:15:33.901Z,0.00
2022-12-27T04:16:33.789Z,0.00
2022-12-27T04:17:33.908Z,0.00
2022-12-27T04:18:33.938Z,0.00
2022-12-27T04:19:33.816Z,0.00
2022-12-27T04:20:33.945Z,0.00
2022-12-27T04:21:33.817Z,0.00
2022-12-27T04:22:33.739Z,0.00
2022-12-27T04:23:33.747Z,0.00
2022-12-27T04:24:33.763Z,0.00
2022-12-27T04:25:33.779Z,0.00
2022-12-27T04:26:33.676Z,0.00
2022-12-27T04:27:33.760Z,0.00
2022-12-27T04:28:33.897Z,0.00
2022-12-27T04:29:33.691Z,0.00
2022-12-27T04:30:33.745Z,0.00
2022-12-27T04:31:33.771Z,0.00
2022-12-27T04:32:33.795Z,0.00
2022-12-27T04:33:34.326Z,0.00
2022-12-27T04:34:33.919Z,0.00
2022-12-27T04:35:33.920Z,0.00
2022-12-27T04:36:33.837Z,0.00
2022-12-27T04:37:34.571Z,0.00
2022-12-27T04:38:33.983Z,0.00
2022-12-27T04:42:06.237Z,0.00
2022-12-27T04:44:58.156Z,0.00
2022-12-27T04:45:35.525Z,0.00
2022-12-27T04:46:39.392Z,0.00
2022-12-27T04:47:35.678Z,0.00
2022-12-27T04:48:41.087Z,0.00
2022-12-27T04:49:36.413Z,0.00
2022-12-27T04:50:35.259Z,0.00
2022-12-27T04:51:37.337Z,0.00
2022-12-27T04:56:27.960Z,0.00
2022-12-27T04:57:09.439Z,0.00
2022-12-27T04:57:52.007Z,0.00
2022-12-27T04:58:45.669Z,0.00
2022-12-27T04:59:39.968Z,0.00
2022-12-27T05:00:42.601Z,0.00
2022-12-27T05:01:43.191Z,0.00
2022-12-27T05:02:40.249Z,0.00
2022-12-27T05:03:48.897Z,0.00
2022-12-27T05:04:45.527Z,0.00
2022-12-27T05:05:42.036Z,0.00
2022-12-27T05:06:39.914Z,0.00
2022-12-27T05:07:37.863Z,0.00
2022-12-27T05:08:42.672Z,0.00
2022-12-27T05:09:42.082Z,0.00
2022-12-27T05:11:08.264Z,0.00
2022-12-27T06:35:52.916Z,0.00
2022-12-27T06:36:29.804Z,0.00
2022-12-27T06:37:18.214Z,0.00
2022-12-27T06:38:15.371Z,0.00
2022-12-27T06:41:36.691Z,0.00
2022-12-27T06:42:30.631Z,0.00
2022-12-27T06:43:30.743Z,0.00
2022-12-27T06:44:30.552Z,0.00
2022-12-27T06:45:30.577Z,0.00
2022-12-27T06:46:30.582Z,0.00
2022-12-27T06:47:30.768Z,0.00
2022-12-27T06:48:30.552Z,0.00
2022-12-27T06:49:30.500Z,0.00
2022-12-27T06:50:30.591Z,4.00
2022-12-27T06:51:30.493Z,0.00
2022-12-27T06:52:30.603Z,0.00
2022-12-27T06:53:30.433Z,0.00
2022-12-27T06:54:30.693Z,0.00
2022-12-27T06:55:30.466Z,4.00
2022-12-27T06:56:30.417Z,4.00
2022-12-27T06:57:30.526Z,0.00
2022-12-27T06:58:30.429Z,4.00
2022-12-27T06:59:30.452Z,4.00
2022-12-27T07:00:30.473Z,4.00
2022-12-27T07:01:30.660Z,4.00
2022-12-27T07:02:30.745Z,4.00
2022-12-27T07:03:30.367Z,4.00
2022-12-27T07:04:30.294Z,4.00
2022-12-27T07:05:30.385Z,8.00
2022-12-27T07:06:30.300Z,4.00
2022-12-27T07:07:30.808Z,4.00
2022-12-27T07:08:30.217Z,8.00
2022-12-27T07:09:30.224Z,12.00
2022-12-27T07:10:31.156Z,20.00
2022-12-27T07:11:30.265Z,20.00
2022-12-27T07:12:34.789Z,24.00
2022-12-27T07:13:31.167Z,24.00
2022-12-27T07:14:30.263Z,24.00
2022-12-27T07:15:30.263Z,36.00
2022-12-27T07:16:30.216Z,36.00
2022-12-27T07:17:30.173Z,40.00
2022-12-27T07:18:30.089Z,56.00
2022-12-27T07:19:30.187Z,64.00
2022-12-27T07:20:30.271Z,60.00
2022-12-27T07:21:30.115Z,80.00
2022-12-27T07:22:30.118Z,104.00
2022-12-27T07:23:30.120Z,124.00
2022-12-27T07:24:30.012Z,140.00
2022-12-27T07:25:30.126Z,144.00
2022-12-27T07:26:30.483Z,140.00
2022-12-27T07:27:30.240Z,152.00
2022-12-27T07:28:30.043Z,144.00
2022-12-27T07:29:29.855Z,172.00
2022-12-27T07:30:30.185Z,212.00
2022-12-27T07:31:30.049Z,224.00
2022-12-27T07:32:29.991Z,228.00
2022-12-27T07:33:29.967Z,296.00
2022-12-27T07:34:29.893Z,324.00
2022-12-27T07:35:30.079Z,324.00
2022-12-27T07:36:29.924Z,392.00
2022-12-27T07:37:30.181Z,420.00
2022-12-27T07:38:29.945Z,436.00
2022-12-27T07:39:29.939Z,404.00
2022-12-27T07:40:29.809Z,380.00
2022-12-27T07:41:29.842Z,392.00
2022-12-27T07:42:29.833Z,428.00
2022-12-27T07:43:29.732Z,388.00
2022-12-27T07:44:29.764Z,472.00
2022-12-27T07:45:29.782Z,528.00
2022-12-27T07:46:29.753Z,556.00
2022-12-27T07:47:29.761Z,528.00
2022-12-27T07:48:29.766Z,500.00
2022-12-27T07:49:29.878Z,548.00
2022-12-27T07:50:29.688Z,696.00
2022-12-27T07:51:29.796Z,780.00
2022-12-27T07:52:30.332Z,892.00
2022-12-27T07:53:29.908Z,976.00
2022-12-27T07:54:29.623Z,968.00
2022-12-27T07:55:29.540Z,1092.00
2022-12-27T07:56:29.632Z,1148.00
2022-12-27T07:57:29.553Z,1112.00
2022-12-27T07:58:29.640Z,1092.00
2022-12-27T07:59:29.545Z,1024.00
2022-12-27T08:00:29.556Z,840.00
2022-12-27T08:01:29.698Z,1020.00
2022-12-27T08:02:29.766Z,1156.00
2022-12-27T08:03:29.566Z,1380.00
2022-12-27T08:04:29.610Z,1476.00
2022-12-27T08:05:29.489Z,1676.00
2022-12-27T08:06:29.388Z,1596.00
2022-12-27T08:07:29.401Z,1680.00
2022-12-27T08:08:29.500Z,1628.00
2022-12-27T08:09:29.511Z,1576.00
2022-12-27T08:10:29.533Z,1632.00
2022-12-27T08:11:29.407Z,1856.00
2022-12-27T08:12:29.547Z,2024.00
2022-12-27T08:13:29.319Z,2216.00
2022-12-27T08:14:29.336Z,1908.00
2022-12-27T08:15:29.870Z,1940.00
2022-12-27T08:16:29.366Z,1840.00
2022-12-27T08:17:29.301Z,1836.00
2022-12-27T08:18:29.455Z,1908.00
2022-12-27T08:19:29.266Z,2160.00
2022-12-27T08:20:29.342Z,2576.00
2022-12-27T08:21:29.382Z,2568.00
2022-12-27T08:22:29.205Z,3136.00
2022-12-27T08:23:29.348Z,3008.00
2022-12-27T08:24:29.205Z,2500.00
2022-12-27T08:25:29.219Z,2328.00
2022-12-27T08:26:29.233Z,2232.00
2022-12-27T08:27:29.223Z,2744.00
2022-12-27T08:28:29.164Z,2556.00
2022-12-27T08:29:29.354Z,2296.00
2022-12-27T08:30:29.213Z,2400.00
2022-12-27T08:31:29.068Z,2404.00
2022-12-27T08:32:29.064Z,2432.00
2022-12-27T08:33:29.096Z,2592.00
2022-12-27T08:34:29.081Z,2564.00
2022-12-27T08:36:54.848Z,2524.00
2022-12-27T08:37:30.017Z,2496.00
2022-12-27T08:38:29.203Z,2452.00
2022-12-27T08:39:29.017Z,2488.00
2022-12-27T08:40:29.252Z,2516.00
2022-12-27T08:41:29.216Z,2504.00
2022-12-27T08:42:28.978Z,2528.00
2022-12-27T08:43:29.031Z,2616.00
2022-12-27T08:44:29.506Z,2688.00
2022-12-27T08:45:28.877Z,2848.00
2022-12-27T08:46:29.276Z,3216.00
2022-12-27T08:47:28.955Z,2784.00
2022-12-27T08:48:28.895Z,2940.00
2022-12-27T08:49:28.863Z,3724.00
2022-12-27T08:50:28.772Z,4092.00
2022-12-27T08:51:35.989Z,5048.00
2022-12-27T08:52:29.923Z,6664.00
2022-12-27T08:53:28.804Z,8956.00
2022-12-27T08:54:28.922Z,9012.00
2022-12-27T08:55:28.707Z,6124.00
2022-12-27T08:56:28.722Z,7316.00
2022-12-27T08:57:28.739Z,7684.00
2022-12-27T08:58:28.942Z,4204.00
2022-12-27T08:59:28.739Z,4284.00
2022-12-27T09:00:28.851Z,3520.00
2022-12-27T09:01:28.792Z,3656.00
2022-12-27T09:02:28.750Z,3652.00
2022-12-27T09:03:28.702Z,4440.00
2022-12-27T09:04:28.672Z,5512.00
2022-12-27T09:05:28.606Z,6804.00
2022-12-27T09:06:28.705Z,4672.00
2022-12-27T09:07:28.514Z,4016.00
2022-12-27T09:08:28.603Z,3864.00
2022-12-27T09:09:28.612Z,5484.00
2022-12-27T09:10:28.499Z,6964.00
2022-12-27T09:11:28.606Z,5504.00
2022-12-27T09:12:28.454Z,4516.00
2022-12-27T09:13:28.640Z,3712.00
2022-12-27T09:14:29.082Z,3712.00
2022-12-27T09:15:28.449Z,4176.00
2022-12-27T09:16:28.451Z,4828.00
2022-12-27T09:17:28.401Z,5280.00
2022-12-27T09:18:28.371Z,4572.00
2022-12-27T09:19:29.395Z,3924.00
2022-12-27T09:20:28.470Z,3756.00
2022-12-27T09:21:28.305Z,3832.00
2022-12-27T09:22:28.488Z,3884.00
2022-12-27T09:23:28.405Z,3800.00
2022-12-27T09:24:28.325Z,3768.00
2022-12-27T09:25:28.418Z,3852.00
2022-12-27T09:26:28.330Z,3748.00
2022-12-27T09:27:28.239Z,3792.00
2022-12-27T09:28:28.319Z,3764.00
2022-12-27T09:29:28.338Z,3780.00
2022-12-27T09:30:28.248Z,3768.00
2022-12-27T09:31:28.318Z,4012.00
2022-12-27T09:32:28.258Z,4288.00
2022-12-27T09:33:28.155Z,3964.00
2022-12-27T09:34:28.281Z,3776.00
2022-12-27T09:35:30.113Z,3780.00
2022-12-27T09:36:28.211Z,3852.00
2022-12-27T09:37:28.199Z,3924.00
2022-12-27T09:38:28.108Z,4092.00
2022-12-27T09:39:28.110Z,3900.00
2022-12-27T09:40:28.123Z,3936.00
2022-12-27T09:43:29.165Z,4076.00
2022-12-27T09:44:28.124Z,3924.00
2022-12-27T09:45:28.149Z,4032.00
2022-12-27T09:46:28.078Z,4248.00
2022-12-27T09:47:28.157Z,4588.00
2022-12-27T09:48:33.038Z,5036.00
2022-12-27T09:49:29.009Z,4792.00
2022-12-27T09:50:27.991Z,5456.00
2022-12-27T09:51:28.195Z,4352.00
2022-12-27T09:52:28.026Z,4404.00
2022-12-27T09:53:27.988Z,4472.00
2022-12-27T09:54:27.918Z,5140.00
2022-12-27T09:55:28.144Z,5028.00
2022-12-27T09:56:46.872Z,5816.00
2022-12-27T09:57:28.941Z,4580.00
2022-12-27T09:58:28.030Z,5316.00
2022-12-27T09:59:27.931Z,6392.00
2022-12-27T10:00:29.688Z,5912.00
2022-12-27T10:01:29.083Z,5700.00
2022-12-27T10:02:28.101Z,5060.00
2022-12-27T10:03:27.881Z,4612.00
2022-12-27T10:04:52.556Z,4412.00
2022-12-27T10:05:28.864Z,4376.00
2022-12-27T10:06:27.772Z,4336.00
2022-12-27T10:07:27.800Z,4356.00
2022-12-27T10:08:28.840Z,4376.00
2022-12-27T10:09:27.703Z,4452.00
2022-12-27T10:10:27.703Z,4412.00
2022-12-27T10:11:27.733Z,4476.00
2022-12-27T10:12:31.573Z,4788.00
2022-12-27T10:13:27.643Z,4432.00
2022-12-27T10:14:27.749Z,4444.00
2022-12-27T10:15:27.669Z,4332.00
2022-12-27T10:16:27.750Z,4528.00
2022-12-27T10:17:28.263Z,5944.00
2022-12-27T10:18:27.659Z,5604.00
2022-12-27T10:19:27.672Z,4444.00
2022-12-27T10:20:27.716Z,4456.00
2022-12-27T10:21:27.607Z,4496.00
2022-12-27T10:22:27.732Z,4556.00
2022-12-27T10:23:27.691Z,4680.00
2022-12-27T10:24:27.602Z,4976.00
2022-12-27T10:25:27.561Z,5016.00
2022-12-27T10:26:27.615Z,5248.00
2022-12-27T10:27:28.067Z,4820.00
2022-12-27T10:28:27.556Z,4648.00
2022-12-27T10:29:27.553Z,4568.00
2022-12-27T10:30:27.442Z,4508.00
2022-12-27T10:31:27.688Z,4560.00
2022-12-27T10:32:27.583Z,4652.00
2022-12-27T10:33:27.511Z,4828.00
2022-12-27T10:34:27.396Z,5468.00
2022-12-27T10:35:27.479Z,4660.00
2022-12-27T10:36:27.576Z,4636.00
2022-12-27T10:37:27.390Z,4600.00
2022-12-27T10:38:27.333Z,4624.00
2022-12-27T10:39:27.896Z,4640.00
2022-12-27T10:40:32.462Z,4772.00
2022-12-27T10:41:28.341Z,4856.00
2022-12-27T10:42:27.858Z,5612.00
2022-12-27T10:43:27.332Z,4972.00
2022-12-27T10:44:27.366Z,4844.00
2022-12-27T10:45:27.236Z,4840.00
2022-12-27T10:46:32.438Z,4856.00
2022-12-27T10:47:28.383Z,4744.00
2022-12-27T10:48:36.324Z,4684.00
2022-12-27T10:49:28.216Z,4676.00
2022-12-27T10:50:27.175Z,4824.00
2022-12-27T10:51:27.280Z,4696.00
2022-12-27T10:52:27.226Z,4684.00
2022-12-27T10:53:27.222Z,4664.00
2022-12-27T10:54:27.110Z,4980.00
2022-12-27T10:55:27.004Z,5580.00
2022-12-27T10:56:27.109Z,4320.00
2022-12-27T10:57:27.241Z,4356.00
2022-12-27T10:58:27.027Z,4484.00
2022-12-27T10:59:27.153Z,4712.00
2022-12-27T11:00:27.074Z,4908.00
2022-12-27T11:01:27.198Z,5176.00
2022-12-27T11:02:27.166Z,5340.00
2022-12-27T11:03:26.982Z,5504.00
2022-12-27T11:04:27.079Z,5528.00
2022-12-27T11:05:27.080Z,5588.00
2022-12-27T11:06:27.083Z,5432.00
2022-12-27T11:07:26.908Z,5068.00
2022-12-27T11:08:26.898Z,4900.00
2022-12-27T11:09:26.996Z,5516.00
2022-12-27T11:10:26.917Z,7008.00
2022-12-27T11:11:27.426Z,9688.00
2022-12-27T11:12:26.847Z,11192.00
2022-12-27T11:13:27.030Z,11696.00
2022-12-27T11:14:26.832Z,11820.00
2022-12-27T11:15:27.777Z,11132.00
2022-12-27T11:16:27.121Z,9952.00
2022-12-27T11:17:26.857Z,8508.00
2022-12-27T11:18:26.856Z,6992.00
2022-12-27T11:19:26.760Z,6292.00
2022-12-27T11:20:26.882Z,6064.00
2022-12-27T11:21:28.206Z,6212.00
2022-12-27T11:22:26.685Z,5516.00
2022-12-27T11:23:26.797Z,5204.00
2022-12-27T11:24:26.696Z,5072.00
2022-12-27T11:25:26.719Z,4968.00
2022-12-27T11:26:26.733Z,4888.00
2022-12-27T11:27:26.719Z,4884.00
2022-12-27T11:28:26.871Z,4860.00
2022-12-27T11:29:26.637Z,4868.00
2022-12-27T11:30:26.663Z,4884.00
2022-12-27T11:31:26.716Z,4888.00
2022-12-27T11:32:26.557Z,4864.00
2022-12-27T11:33:26.565Z,4700.00
2022-12-27T11:34:26.679Z,4828.00
2022-12-27T11:35:26.683Z,4912.00
2022-12-27T11:36:26.593Z,5440.00
2022-12-27T11:37:26.681Z,5484.00
2022-12-27T11:38:26.505Z,5048.00
2022-12-27T11:39:26.603Z,4960.00
2022-12-27T11:40:26.517Z,5324.00
2022-12-27T11:41:28.195Z,5092.00
2022-12-27T11:42:26.515Z,5436.00
2022-12-27T11:43:26.533Z,5664.00
2022-12-27T11:44:26.550Z,5280.00
2022-12-27T11:45:26.541Z,5076.00
2022-12-27T11:46:26.530Z,5068.00
2022-12-27T11:47:26.446Z,6576.00
2022-12-27T11:48:26.370Z,8492.00
2022-12-27T11:49:26.384Z,7180.00
2022-12-27T11:50:26.484Z,8116.00
2022-12-27T11:51:26.303Z,6484.00
2022-12-27T11:52:26.387Z,7444.00
2022-12-27T11:53:26.294Z,8616.00
2022-12-27T11:54:26.398Z,9036.00
2022-12-27T11:55:26.303Z,8828.00
2022-12-27T11:56:26.234Z,7140.00
2022-12-27T11:57:26.318Z,7360.00
2022-12-27T11:58:26.225Z,7668.00
2022-12-27T11:59:26.246Z,6756.00
2022-12-27T12:00:26.233Z,7988.00
2022-12-27T12:01:26.288Z,7784.00
2022-12-27T12:02:26.192Z,8388.00
2022-12-27T12:03:26.298Z,7076.00
2022-12-27T12:04:26.169Z,6188.00
2022-12-27T12:05:26.168Z,5944.00
2022-12-27T12:06:28.821Z,7236.00
2022-12-27T12:07:27.208Z,6740.00
2022-12-27T12:08:26.098Z,6744.00
2022-12-27T12:09:26.110Z,5816.00
2022-12-27T12:10:26.143Z,5360.00
2022-12-27T12:11:26.101Z,5468.00
2022-12-27T12:12:26.229Z,6208.00
2022-12-27T12:13:26.092Z,5268.00
2022-12-27T12:14:26.055Z,4984.00
2022-12-27T12:15:26.065Z,4844.00
2022-12-27T12:16:26.035Z,4732.00
2022-12-27T12:17:31.111Z,4808.00
2022-12-27T12:18:27.415Z,4528.00
2022-12-27T12:19:25.977Z,4392.00
2022-12-27T12:20:25.972Z,4680.00
2022-12-27T12:21:25.871Z,4876.00
2022-12-27T12:22:25.900Z,4868.00
2022-12-27T12:23:25.907Z,4816.00
2022-12-27T12:24:26.420Z,4792.00
2022-12-27T12:25:26.009Z,4756.00
2022-12-27T12:26:25.914Z,4804.00
2022-12-27T12:27:26.742Z,4864.00
2022-12-27T12:28:56.253Z,4932.00
2022-12-27T12:29:26.961Z,4696.00
2022-12-27T12:30:27.686Z,4660.00
2022-12-27T12:31:25.872Z,4600.00
2022-12-27T12:32:25.837Z,4384.00
2022-12-27T12:33:25.754Z,4384.00
2022-12-27T12:34:25.853Z,4408.00
2022-12-27T12:35:25.784Z,4572.00
2022-12-27T12:36:25.780Z,5484.00
2022-12-27T12:37:25.692Z,5332.00
2022-12-27T12:38:25.702Z,4840.00
2022-12-27T12:39:25.705Z,4620.00
2022-12-27T12:40:25.614Z,4492.00
2022-12-27T12:41:25.624Z,4388.00
2022-12-27T12:42:25.808Z,4544.00
2022-12-27T12:43:25.662Z,4680.00
2022-12-27T12:44:25.702Z,4632.00
2022-12-27T12:45:25.744Z,4624.00
2022-12-27T12:46:25.483Z,4756.00
2022-12-27T12:47:25.949Z,4812.00
2022-12-27T12:48:25.574Z,4584.00
2022-12-27T12:49:25.552Z,4572.00
2022-12-27T12:50:25.590Z,4648.00
2022-12-27T12:51:25.485Z,4772.00
2022-12-27T12:52:25.494Z,4892.00
2022-12-27T12:53:25.496Z,5060.00
2022-12-27T12:54:29.899Z,4956.00
2022-12-27T12:55:25.521Z,4860.00
2022-12-27T12:56:25.501Z,4684.00
2022-12-27T12:57:25.448Z,4692.00
2022-12-27T12:58:25.430Z,4840.00
2022-12-27T12:59:25.548Z,5092.00
2022-12-27T13:00:25.436Z,5088.00
2022-12-27T13:01:25.647Z,4856.00
2022-12-27T13:02:25.492Z,5008.00
2022-12-27T13:03:25.434Z,4756.00
2022-12-27T13:04:25.300Z,4512.00
2022-12-27T13:05:25.464Z,4380.00
2022-12-27T13:06:25.294Z,4212.00
2022-12-27T13:07:25.379Z,4044.00
2022-12-27T13:08:25.307Z,3928.00
2022-12-27T13:09:25.207Z,3852.00
2022-12-27T13:10:25.300Z,4100.00
2022-12-27T13:11:25.295Z,4156.00
2022-12-27T13:12:25.215Z,4280.00
2022-12-27T13:13:25.221Z,4320.00
2022-12-27T13:14:25.152Z,4416.00
2022-12-27T13:15:25.157Z,4460.00
2022-12-27T13:16:25.200Z,4380.00
2022-12-27T13:17:25.151Z,4188.00
2022-12-27T13:18:30.214Z,4172.00
2022-12-27T13:19:26.194Z,4136.00
2022-12-27T13:20:25.176Z,3916.00
2022-12-27T13:21:25.096Z,3856.00
2022-12-27T13:22:25.184Z,3844.00
2022-12-27T13:23:25.121Z,3976.00
2022-12-27T13:24:29.803Z,3912.00
2022-12-27T13:25:26.027Z,3864.00
2022-12-27T13:26:25.017Z,3752.00
2022-12-27T13:27:26.946Z,3600.00
2022-12-27T13:28:25.829Z,3524.00
2022-12-27T13:29:25.043Z,3284.00
2022-12-27T13:30:25.063Z,3284.00
2022-12-27T13:31:24.956Z,3524.00
2022-12-27T13:32:24.865Z,3308.00
2022-12-27T13:33:25.065Z,3384.00
2022-12-27T13:34:25.095Z,3384.00
2022-12-27T13:35:24.875Z,3292.00
2022-12-27T13:36:25.001Z,3120.00
2022-12-27T13:37:24.900Z,3064.00
2022-12-27T13:38:24.876Z,3060.00
2022-12-27T13:39:24.820Z,3080.00
2022-12-27T13:40:24.823Z,3208.00
2022-12-27T13:41:30.092Z,3416.00
2022-12-27T13:42:26.891Z,3412.00
2022-12-27T13:43:24.811Z,3484.00
2022-12-27T13:44:24.837Z,3560.00
2022-12-27T13:45:24.727Z,3628.00
2022-12-27T13:46:24.884Z,3716.00
2022-12-27T13:47:24.882Z,3792.00
2022-12-27T13:48:24.643Z,3852.00
2022-12-27T13:49:24.676Z,3908.00
2022-12-27T13:50:24.685Z,3944.00
2022-12-27T13:51:24.681Z,3960.00
2022-12-27T13:52:24.696Z,3952.00
2022-12-27T13:53:24.608Z,3944.00
2022-12-27T13:54:24.693Z,3900.00
2022-12-27T13:55:24.616Z,3816.00
2022-12-27T13:57:25.563Z,3576.00
2022-12-27T13:58:24.733Z,3416.00
2022-12-27T13:59:24.618Z,3228.00
2022-12-27T14:00:24.548Z,3072.00
2022-12-27T14:01:24.708Z,2936.00
2022-12-27T14:02:24.681Z,2832.00
2022-12-27T14:03:24.619Z,2748.00
2022-12-27T14:04:24.661Z,2692.00
2022-12-27T14:05:24.500Z,2648.00
2022-12-27T14:06:24.506Z,2612.00
2022-12-27T14:07:24.478Z,2572.00
2022-12-27T14:08:24.413Z,2540.00
2022-12-27T14:09:24.381Z,2508.00
2022-12-27T14:10:24.426Z,2516.00
2022-12-27T14:11:24.392Z,2520.00
2022-12-27T14:12:24.424Z,2572.00
2022-12-27T14:13:24.336Z,2620.00
2022-12-27T14:14:24.329Z,2636.00
2022-12-27T14:15:24.451Z,2592.00
2022-12-27T14:16:24.848Z,2516.00
2022-12-27T14:17:24.436Z,2408.00
2022-12-27T14:18:24.341Z,2296.00